Time;durP1;ratioP1;P1;durP2;ratioP2;P2;SDS_P1;SDS_P2;PMS_P1;PMS_P2;Temp;Humidity;BMP_temperature;BMP_pressure;BME280_temperature;BME280_humidity;BME280_pressure;Samples;Min_cycle;Max_cycle;Signal;HPM_P1;HPM_P2
2021/07/06 00:01:43;;;;;;;2.22;1.30;;;31.40;38.90;;;;;;5050780;28;20187;-57
2021/07/06 00:04:09;;;;;;;3.20;1.67;;;31.40;38.90;;;;;;5050903;28;20401;-56
2021/07/06 00:06:35;;;;;;;2.95;1.40;;;31.40;38.70;;;;;;5032956;28;20107;-56
2021/07/06 00:09:02;;;;;;;2.38;1.70;;;31.40;38.60;;;;;;5050279;28;20040;-56
2021/07/06 00:11:29;;;;;;;2.10;1.05;;;31.40;38.50;;;;;;5050582;28;20067;-56
2021/07/06 00:13:55;;;;;;;1.90;1.27;;;31.40;38.30;;;;;;5050385;28;20065;-56
2021/07/06 00:16:21;;;;;;;1.65;1.25;;;31.40;38.40;;;;;;5033012;28;20021;-56
2021/07/06 00:18:47;;;;;;;1.60;1.35;;;31.40;38.30;;;;;;5050626;28;20468;-56
2021/07/06 00:21:13;;;;;;;1.42;1.02;;;31.40;38.40;;;;;;5050424;28;20044;-56
2021/07/06 00:23:40;;;;;;;3.08;1.55;;;31.40;38.20;;;;;;5050585;28;20033;-57
2021/07/06 00:26:06;;;;;;;2.35;1.25;;;31.40;38.10;;;;;;5032875;28;20027;-56
2021/07/06 00:28:33;;;;;;;2.63;1.30;;;31.40;38.10;;;;;;5050199;28;20021;-57
2021/07/06 00:30:59;;;;;;;4.80;1.70;;;31.50;38.10;;;;;;5050364;28;20025;-56
2021/07/06 00:33:29;;;;;;;2.90;1.33;;;31.40;37.90;;;;;;5050101;28;20532;-57
2021/07/06 00:36:01;;;;;;;5.82;1.33;;;31.40;37.70;;;;;;5050408;28;20039;-56
2021/07/06 00:38:31;;;;;;;3.85;1.65;;;31.40;37.90;;;;;;5050448;28;20439;-56
2021/07/06 00:40:59;;;;;;;6.22;1.35;;;31.40;37.90;;;;;;5049897;28;20041;-56
2021/07/06 00:43:25;;;;;;;1.92;1.35;;;31.40;37.70;;;;;;5048113;28;20037;-57
2021/07/06 00:45:56;;;;;;;2.67;1.50;;;31.50;37.80;;;;;;5049831;28;20464;-57
2021/07/06 00:48:23;;;;;;;2.72;1.40;;;31.40;37.60;;;;;;5049533;28;20029;-57
2021/07/06 00:50:49;;;;;;;3.70;2.03;;;31.40;37.70;;;;;;5050370;28;20491;-57
2021/07/06 00:53:14;;;;;;;2.80;1.20;;;31.50;37.80;;;;;;5050063;28;20092;-56
2021/07/06 00:55:43;;;;;;;2.38;1.45;;;31.50;37.80;;;;;;5032786;28;20430;-56
2021/07/06 00:58:11;;;;;;;2.55;1.83;;;31.40;37.40;;;;;;5053809;28;20027;-66
2021/07/06 01:00:37;;;;;;;2.10;1.40;;;31.40;37.60;;;;;;5054068;28;20052;-56
2021/07/06 01:03:05;;;;;;;2.58;1.40;;;31.40;37.40;;;;;;5053533;28;20043;-56
2021/07/06 01:05:31;;;;;;;3.97;1.63;;;31.40;37.40;;;;;;5053472;28;20072;-56
2021/07/06 01:07:57;;;;;;;6.53;1.67;;;31.40;37.30;;;;;;5035119;28;20487;-57
2021/07/06 01:10:23;;;;;;;2.47;1.20;;;31.50;37.50;;;;;;5053370;28;20377;-56
2021/07/06 01:12:52;;;;;;;2.05;1.33;;;31.40;37.30;;;;;;5053301;28;20033;-57
2021/07/06 01:15:23;;;;;;;2.33;1.30;;;31.50;37.40;;;;;;5035739;28;20055;-58
2021/07/06 01:18:10;;;;;;;3.08;1.33;;;31.50;37.30;;;;;;5053407;28;20021;-56
2021/07/06 01:20:39;;;;;;;2.03;0.93;;;31.40;37.50;;;;;;5035820;28;20035;-56
2021/07/06 01:23:07;;;;;;;2.93;1.00;;;31.50;37.60;;;;;;5053491;28;20021;-56
2021/07/06 01:25:35;;;;;;;2.05;1.55;;;31.50;37.40;;;;;;5035468;28;20082;-56
2021/07/06 01:28:02;;;;;;;2.05;1.17;;;31.50;37.30;;;;;;5052601;28;20468;-57
2021/07/06 01:30:28;;;;;;;2.30;1.05;;;31.50;37.40;;;;;;5053291;28;20024;-55
2021/07/06 01:32:55;;;;;;;4.70;1.55;;;31.50;37.50;;;;;;5053312;28;20078;-57
2021/07/06 01:35:21;;;;;;;1.88;1.50;;;31.50;37.60;;;;;;5053218;28;20025;-56
2021/07/06 01:37:50;;;;;;;2.80;1.17;;;31.50;37.60;;;;;;5035468;28;20025;-58
2021/07/06 01:40:18;;;;;;;3.35;1.73;;;31.50;37.60;;;;;;5035007;28;20025;-56
2021/07/06 01:42:45;;;;;;;1.77;1.10;;;31.50;37.60;;;;;;5052919;28;20028;-56
2021/07/06 01:45:14;;;;;;;1.45;1.20;;;31.50;37.60;;;;;;5053293;28;20029;-56
2021/07/06 01:47:42;;;;;;;3.88;1.38;;;31.50;37.30;;;;;;5053454;28;20044;-56
2021/07/06 01:50:12;;;;;;;2.38;1.08;;;31.50;37.40;;;;;;5053030;28;20471;-56
2021/07/06 01:52:46;;;;;;;1.77;1.20;;;31.50;37.90;;;;;;5053021;28;20557;-56
2021/07/06 01:55:14;;;;;;;3.97;1.50;;;31.50;37.30;;;;;;5053070;28;20031;-66
2021/07/06 01:57:45;;;;;;;3.60;1.38;;;31.50;37.30;;;;;;5035348;28;20025;-56
2021/07/06 02:00:17;;;;;;;5.47;1.60;;;31.50;37.30;;;;;;5052883;28;20029;-63
2021/07/06 02:02:44;;;;;;;1.30;1.20;;;31.60;37.20;;;;;;5018755;28;20110;-67
2021/07/06 02:05:16;;;;;;;2.45;1.48;;;31.50;37.30;;;;;;5033714;28;20013;-56
2021/07/06 02:07:49;;;;;;;2.00;1.58;;;31.50;37.20;;;;;;5052619;28;20101;-56
2021/07/06 02:10:16;;;;;;;1.95;1.48;;;31.50;37.20;;;;;;5035016;28;20033;-56
2021/07/06 02:12:42;;;;;;;3.80;1.45;;;31.50;37.40;;;;;;5035075;28;20036;-56
2021/07/06 02:15:11;;;;;;;2.53;1.73;;;31.50;37.30;;;;;;5052473;28;20052;-56
2021/07/06 02:17:38;;;;;;;4.63;1.40;;;31.50;37.30;;;;;;5052284;28;20078;-56
2021/07/06 02:20:10;;;;;;;2.90;1.48;;;31.50;37.50;;;;;;5052033;28;20272;-56
2021/07/06 02:22:36;;;;;;;4.85;1.58;;;31.50;37.40;;;;;;5052351;28;20040;-56
2021/07/06 02:25:04;;;;;;;4.45;1.70;;;31.50;37.60;;;;;;5051602;28;20021;-56
2021/07/06 02:27:30;;;;;;;3.38;1.40;;;31.50;37.60;;;;;;5034469;28;20063;-56
2021/07/06 02:29:56;;;;;;;1.92;1.42;;;31.50;37.70;;;;;;5052001;28;20510;-56
2021/07/06 02:32:22;;;;;;;2.05;1.35;;;31.50;37.70;;;;;;5034200;28;20029;-57
2021/07/06 02:34:48;;;;;;;4.18;1.65;;;31.50;37.70;;;;;;5051925;28;20068;-58
2021/07/06 02:37:14;;;;;;;2.30;1.40;;;31.50;37.70;;;;;;5034520;28;20485;-63
2021/07/06 02:39:40;;;;;;;3.92;1.60;;;31.50;37.70;;;;;;5052357;28;20032;-57
2021/07/06 02:42:06;;;;;;;2.05;1.60;;;31.50;37.80;;;;;;5052316;28;20083;-56
2021/07/06 02:44:32;;;;;;;2.05;1.63;;;31.50;37.90;;;;;;5051274;28;20025;-56
2021/07/06 02:46:58;;;;;;;3.67;1.33;;;31.50;37.80;;;;;;5051572;28;20429;-56
2021/07/06 02:49:24;;;;;;;2.85;1.40;;;31.50;37.60;;;;;;5051619;28;20108;-56
2021/07/06 02:51:50;;;;;;;2.03;1.55;;;31.50;37.80;;;;;;5051885;28;20162;-56
2021/07/06 02:54:16;;;;;;;1.30;1.20;;;31.50;37.80;;;;;;5051788;28;20029;-64
2021/07/06 02:56:42;;;;;;;2.40;1.67;;;31.50;37.80;;;;;;5034359;28;20071;-56
2021/07/06 02:59:08;;;;;;;2.92;1.27;;;31.50;37.90;;;;;;5051754;28;20111;-56
2021/07/06 03:01:34;;;;;;;3.13;1.55;;;31.50;38.00;;;;;;5033708;28;20158;-56
2021/07/06 03:04:00;;;;;;;3.70;1.83;;;31.50;38.10;;;;;;5054250;28;20028;-55
2021/07/06 03:06:28;;;;;;;1.90;1.60;;;31.50;38.10;;;;;;5071284;28;20039;-57
2021/07/06 03:08:56;;;;;;;2.95;1.75;;;31.50;38.30;;;;;;5070295;28;20020;-56
2021/07/06 03:11:23;;;;;;;3.47;1.80;;;31.50;38.30;;;;;;5071108;28;20417;-55
2021/07/06 03:13:49;;;;;;;1.50;1.40;;;31.50;38.30;;;;;;5071453;28;20079;-56
2021/07/06 03:16:15;;;;;;;2.67;1.45;;;31.50;38.30;;;;;;5071918;28;20024;-55
2021/07/06 03:18:41;;;;;;;2.05;1.88;;;31.50;38.30;;;;;;5071025;28;20035;-56
2021/07/06 03:21:07;;;;;;;1.55;1.30;;;31.50;38.30;;;;;;5052696;28;20020;-55
2021/07/06 03:23:33;;;;;;;3.22;1.70;;;31.50;38.40;;;;;;5061616;28;20165;-55
2021/07/06 03:25:59;;;;;;;3.17;1.58;;;31.40;38.30;;;;;;5055323;28;20468;-57
2021/07/06 03:28:25;;;;;;;1.95;1.50;;;31.50;38.40;;;;;;5052268;28;20017;-56
2021/07/06 03:30:51;;;;;;;6.47;1.88;;;31.40;38.30;;;;;;5067344;28;20482;-57
2021/07/06 03:33:17;;;;;;;2.67;1.60;;;31.50;38.50;;;;;;5051190;28;20033;-60
2021/07/06 03:35:46;;;;;;;2.85;1.45;;;31.50;38.50;;;;;;5037678;28;20471;-57
2021/07/06 03:38:13;;;;;;;2.65;1.55;;;31.50;38.50;;;;;;5069074;28;20050;-56
2021/07/06 03:40:40;;;;;;;2.25;1.65;;;31.50;38.50;;;;;;5069713;28;20097;-56
2021/07/06 03:43:08;;;;;;;4.75;1.67;;;31.50;38.60;;;;;;5042757;28;20101;-57
2021/07/06 03:45:34;;;;;;;2.60;1.40;;;31.40;38.50;;;;;;5050723;28;20514;-56
2021/07/06 03:48:00;;;;;;;3.63;2.05;;;31.50;38.70;;;;;;5062048;28;20474;-56
2021/07/06 03:50:27;;;;;;;2.67;1.67;;;31.50;38.70;;;;;;5052201;28;20138;-56
2021/07/06 03:52:58;;;;;;;3.90;1.58;;;31.50;38.70;;;;;;5061755;28;20280;-56
2021/07/06 03:55:26;;;;;;;4.32;1.50;;;31.50;38.80;;;;;;5063653;28;20043;-56
2021/07/06 03:57:52;;;;;;;3.70;1.90;;;31.50;38.80;;;;;;5046512;28;20468;-56
2021/07/06 04:00:29;;;;;;;3.28;1.90;;;31.50;38.80;;;;;;5037151;28;20033;-57
2021/07/06 04:02:57;;;;;;;2.30;1.75;;;31.40;38.80;;;;;;5066554;28;20024;-56
2021/07/06 04:05:23;;;;;;;3.30;1.45;;;31.50;38.90;;;;;;5060466;28;20033;-58
2021/07/06 04:07:49;;;;;;;4.22;1.88;;;31.50;39.00;;;;;;5053172;28;20333;-57
2021/07/06 04:10:17;;;;;;;9.07;1.95;;;31.50;39.00;;;;;;5063973;28;20525;-56
2021/07/06 04:12:44;;;;;;;4.20;1.77;;;31.50;39.00;;;;;;5050748;28;20037;-57
2021/07/06 04:15:13;;;;;;;2.65;1.77;;;31.50;39.00;;;;;;5048418;28;20021;-57
2021/07/06 04:17:40;;;;;;;3.40;1.88;;;31.40;39.00;;;;;;5050726;28;20025;-56
2021/07/06 04:20:07;;;;;;;3.47;1.63;;;31.50;39.10;;;;;;5050370;28;20150;-56
2021/07/06 04:22:34;;;;;;;3.47;1.58;;;31.50;39.10;;;;;;5058480;28;20029;-57
2021/07/06 04:25:01;;;;;;;5.80;1.90;;;31.50;39.20;;;;;;5052929;28;20031;-57
2021/07/06 04:27:27;;;;;;;4.85;2.00;;;31.50;39.20;;;;;;5054359;28;20387;-56
2021/07/06 04:29:53;;;;;;;1.75;1.40;;;31.50;39.20;;;;;;5049961;28;20044;-57
2021/07/06 04:32:19;;;;;;;7.07;1.70;;;31.50;39.30;;;;;;5053296;28;20025;-56
2021/07/06 04:34:46;;;;;;;6.35;1.67;;;31.50;39.30;;;;;;5055081;28;20037;-57
2021/07/06 04:37:13;;;;;;;3.40;1.80;;;31.50;39.30;;;;;;5054278;28;20036;-56
2021/07/06 04:39:39;;;;;;;2.78;1.52;;;31.50;39.40;;;;;;5054388;28;20033;-55
2021/07/06 04:42:06;;;;;;;2.15;1.70;;;31.50;39.40;;;;;;5066534;28;20044;-55
2021/07/06 04:44:33;;;;;;;7.28;1.70;;;31.50;39.40;;;;;;5072240;28;20052;-55
2021/07/06 04:46:59;;;;;;;3.20;1.80;;;31.50;39.50;;;;;;5073887;28;20044;-56
2021/07/06 04:49:27;;;;;;;3.40;1.60;;;31.50;39.50;;;;;;5063230;28;20038;-63
2021/07/06 04:51:53;;;;;;;5.82;1.98;;;31.50;39.60;;;;;;5036307;28;20217;-56
2021/07/06 04:54:23;;;;;;;3.88;1.30;;;31.50;39.60;;;;;;5070225;28;20083;-56
2021/07/06 04:56:53;;;;;;;5.18;1.50;;;31.50;39.60;;;;;;5073758;28;20550;-56
2021/07/06 04:59:19;;;;;;;;;;;31.50;40.30;;;;;;5056589;28;20434;-56
2021/07/06 05:01:46;;;;;;;2.90;2.10;;;31.50;39.60;;;;;;5052845;28;19909;-58
2021/07/06 05:04:14;;;;;;;3.28;1.77;;;31.50;39.60;;;;;;5058351;28;20484;-56
2021/07/06 05:06:42;;;;;;;5.15;1.80;;;31.50;39.70;;;;;;5053658;28;20029;-56
2021/07/06 05:09:08;;;;;;;3.45;2.60;;;31.50;39.80;;;;;;5066296;28;20020;-56
2021/07/06 05:11:34;;;;;;;6.68;1.95;;;31.50;39.80;;;;;;5056371;28;20035;-59
2021/07/06 05:14:01;;;;;;;4.60;2.30;;;31.50;39.90;;;;;;5067868;28;20040;-63
2021/07/06 05:16:27;;;;;;;5.40;1.88;;;31.40;39.90;;;;;;5034727;28;20471;-56
2021/07/06 05:18:53;;;;;;;2.65;1.88;;;31.40;39.90;;;;;;5053774;28;20247;-63
2021/07/06 05:21:19;;;;;;;5.90;2.00;;;31.40;40.00;;;;;;5035981;28;20158;-57
2021/07/06 05:23:45;;;;;;;4.88;1.50;;;31.50;40.10;;;;;;5053312;28;20376;-57
2021/07/06 05:26:13;;;;;;;5.47;1.92;;;31.50;40.10;;;;;;5053584;28;20155;-57
2021/07/06 05:28:39;;;;;;;6.50;1.77;;;31.50;40.20;;;;;;5056664;28;20021;-57
2021/07/06 05:31:07;;;;;;;5.97;1.83;;;31.40;40.20;;;;;;5052702;28;20032;-57
2021/07/06 05:33:33;;;;;;;3.35;1.77;;;31.50;40.30;;;;;;5070145;28;20036;-56
2021/07/06 05:35:59;;;;;;;3.38;1.80;;;31.50;40.20;;;;;;5052593;28;20032;-56
2021/07/06 05:38:26;;;;;;;3.50;2.05;;;31.50;40.30;;;;;;5060568;28;20032;-60
2021/07/06 05:40:55;;;;;;;6.15;1.58;;;31.50;40.30;;;;;;5063247;28;20125;-56
2021/07/06 05:43:22;;;;;;;3.58;1.70;;;31.50;40.30;;;;;;5061592;28;20439;-57
2021/07/06 05:45:52;;;;;;;4.78;1.70;;;31.50;40.40;;;;;;5053720;28;20107;-57
2021/07/06 05:48:19;;;;;;;3.40;1.60;;;31.50;40.50;;;;;;5019007;28;20037;-59
2021/07/06 05:50:45;;;;;;;9.52;2.28;;;31.50;40.40;;;;;;5053133;28;20022;-57
2021/07/06 05:53:12;;;;;;;5.88;1.67;;;31.50;40.40;;;;;;5052266;28;20403;-57
2021/07/06 05:55:39;;;;;;;5.07;1.73;;;31.50;40.40;;;;;;5040135;28;20083;-57
2021/07/06 05:58:05;;;;;;;5.55;1.83;;;31.50;40.50;;;;;;5034933;28;20033;-56
2021/07/06 06:00:33;;;;;;;5.03;1.92;;;31.50;40.40;;;;;;5052869;28;20020;-57
2021/07/06 06:03:00;;;;;;;3.92;1.90;;;31.50;40.40;;;;;;5052538;28;20029;-57
2021/07/06 06:05:26;;;;;;;6.50;2.10;;;31.50;40.40;;;;;;5049163;28;20045;-55
2021/07/06 06:07:52;;;;;;;2.80;1.50;;;31.50;40.50;;;;;;5040921;28;20071;-56
2021/07/06 06:10:18;;;;;;;8.13;2.05;;;31.50;40.40;;;;;;5037117;28;20020;-57
2021/07/06 06:12:44;;;;;;;5.82;2.35;;;31.50;40.40;;;;;;5060262;28;20136;-56
2021/07/06 06:15:11;;;;;;;6.47;1.92;;;31.50;40.50;;;;;;5038769;28;20020;-58
2021/07/06 06:17:37;;;;;;;5.30;2.25;;;31.50;40.50;;;;;;5054725;28;20067;-57
2021/07/06 06:20:05;;;;;;;3.75;2.10;;;31.50;40.50;;;;;;5041321;28;20036;-57
2021/07/06 06:22:32;;;;;;;4.07;1.95;;;31.60;40.50;;;;;;5037171;28;20108;-57
2021/07/06 06:24:58;;;;;;;3.53;1.90;;;31.50;40.50;;;;;;5053043;28;20526;-64
2021/07/06 06:27:24;;;;;;;4.25;2.40;;;31.60;40.50;;;;;;5033799;28;20032;-58
2021/07/06 06:29:50;;;;;;;6.13;2.03;;;31.60;40.50;;;;;;5070710;28;20095;-56
2021/07/06 06:32:16;;;;;;;6.70;2.17;;;31.60;40.50;;;;;;5036770;28;20115;-56
2021/07/06 06:34:43;;;;;;;13.02;3.58;;;31.60;40.50;;;;;;5071926;28;20524;-55
2021/07/06 06:37:10;;;;;;;17.30;8.20;;;31.60;40.50;;;;;;5069038;28;20099;-56
2021/07/06 06:39:36;;;;;;;9.90;5.55;;;31.60;40.50;;;;;;5044251;28;20057;-57
2021/07/06 06:42:03;;;;;;;5.95;3.25;;;31.70;40.50;;;;;;5051047;28;20519;-58
2021/07/06 06:44:29;;;;;;;5.28;2.55;;;31.70;40.50;;;;;;5027240;28;20021;-64
2021/07/06 06:46:55;;;;;;;4.18;2.40;;;31.70;40.50;;;;;;5047736;28;20056;-63
2021/07/06 06:49:21;;;;;;;5.47;2.50;;;31.70;40.50;;;;;;5029409;28;20056;-56
2021/07/06 06:51:47;;;;;;;7.72;2.83;;;31.80;40.60;;;;;;5048371;28;20653;-56
2021/07/06 06:54:13;;;;;;;5.70;2.72;;;31.80;40.50;;;;;;5043649;28;20447;-57
2021/07/06 06:56:41;;;;;;;12.27;2.47;;;31.80;40.60;;;;;;5034959;28;20115;-57
2021/07/06 06:59:08;;;;;;;4.90;2.28;;;31.90;40.70;;;;;;5046839;28;20036;-56
2021/07/06 07:01:35;;;;;;;4.05;2.10;;;31.90;40.60;;;;;;5029781;28;20037;-56
2021/07/06 07:04:01;;;;;;;10.35;2.47;;;31.90;40.60;;;;;;5049695;28;20033;-59
2021/07/06 07:06:27;;;;;;;6.90;2.20;;;31.90;40.60;;;;;;5065673;28;20049;-56
2021/07/06 07:08:53;;;;;;;8.45;2.80;;;31.90;40.50;;;;;;5059398;28;20021;-56
2021/07/06 07:11:19;;;;;;;7.85;2.40;;;32.00;40.60;;;;;;5048743;28;20036;-64
2021/07/06 07:13:48;;;;;;;8.55;2.90;;;32.00;40.60;;;;;;5030333;28;20040;-58
2021/07/06 07:16:14;;;;;;;20.27;9.20;;;32.00;40.50;;;;;;5051216;28;20037;-57
2021/07/06 07:18:41;;;;;;;11.27;8.63;;;32.00;40.40;;;;;;5039293;28;20074;-64
2021/07/06 07:21:07;;;;;;;14.13;9.82;;;32.00;40.40;;;;;;5053743;28;20090;-57
2021/07/06 07:23:32;;;;;;;10.70;5.03;;;32.10;40.40;;;;;;5031585;28;20379;-57
2021/07/06 07:25:59;;;;;;;5.63;4.90;;;32.00;39.90;;;;;;5049081;28;20047;-60
2021/07/06 07:28:25;;;;;;;8.82;3.97;;;32.10;40.10;;;;;;5049285;28;20028;-57
2021/07/06 07:30:51;;;;;;;6.53;2.67;;;32.10;39.80;;;;;;5047536;28;20017;-60
2021/07/06 07:33:17;;;;;;;7.38;3.03;;;32.10;39.70;;;;;;5050056;28;20036;-57
2021/07/06 07:35:43;;;;;;;7.90;2.97;;;32.20;39.60;;;;;;5052101;28;20442;-57
2021/07/06 07:38:10;;;;;;;9.15;2.78;;;32.20;39.70;;;;;;5065138;28;20052;-57
2021/07/06 07:40:36;;;;;;;5.30;2.85;;;32.20;39.60;;;;;;5065660;28;20468;-57
2021/07/06 07:43:06;;;;;;;6.88;2.35;;;32.30;39.50;;;;;;5030755;28;20118;-57
2021/07/06 07:45:37;;;;;;;16.35;10.57;;;32.30;39.40;;;;;;5060985;28;20045;-57
2021/07/06 07:48:04;;;;;;;12.23;9.23;;;32.30;39.20;;;;;;5050350;28;20060;-57
2021/07/06 07:50:31;;;;;;;9.80;7.05;;;32.40;39.00;;;;;;5034406;28;20025;-59
2021/07/06 07:52:57;;;;;;;7.05;4.60;;;32.40;39.00;;;;;;5056342;28;20033;-56
2021/07/06 07:55:23;;;;;;;12.07;4.03;;;32.40;38.80;;;;;;5032396;28;20559;-56
2021/07/06 07:57:50;;;;;;;11.35;3.25;;;32.50;38.90;;;;;;5050911;28;20100;-56
2021/07/06 08:00:16;;;;;;;8.57;2.67;;;32.50;38.70;;;;;;5043955;28;20040;-56
2021/07/06 08:02:42;;;;;;;6.68;2.47;;;32.50;38.60;;;;;;5065498;28;20028;-55
2021/07/06 08:05:09;;;;;;;3.58;2.00;;;32.60;38.50;;;;;;5070740;28;20039;-56
2021/07/06 08:07:35;;;;;;;8.23;2.38;;;32.60;38.40;;;;;;5071919;28;20016;-56
2021/07/06 08:10:01;;;;;;;7.68;2.10;;;32.60;38.40;;;;;;5056223;28;20082;-57
2021/07/06 08:12:27;;;;;;;4.68;1.92;;;32.60;38.40;;;;;;5062778;28;20017;-56
2021/07/06 08:14:53;;;;;;;7.88;1.98;;;32.70;38.40;;;;;;5068526;28;20113;-57
2021/07/06 08:17:19;;;;;;;4.13;2.33;;;32.70;38.40;;;;;;5054534;28;20025;-56
2021/07/06 08:19:46;;;;;;;5.82;2.15;;;32.70;38.40;;;;;;5054065;28;20033;-55
2021/07/06 08:22:12;;;;;;;7.78;3.05;;;32.80;38.30;;;;;;5065981;28;20024;-55
2021/07/06 08:24:38;;;;;;;15.20;10.68;;;32.80;38.50;;;;;;5054577;28;20032;-56
2021/07/06 08:27:04;;;;;;;12.00;10.30;;;32.80;38.50;;;;;;5056176;28;20033;-57
2021/07/06 08:29:31;;;;;;;11.48;6.63;;;32.90;38.60;;;;;;5035585;28;20380;-67
2021/07/06 08:31:58;;;;;;;5.68;3.75;;;32.90;38.40;;;;;;5053090;28;20028;-55
2021/07/06 08:34:24;;;;;;;5.72;3.22;;;32.90;38.40;;;;;;5060287;28;20040;-56
2021/07/06 08:36:50;;;;;;;5.55;2.75;;;33.00;38.40;;;;;;5065580;28;20764;-56
2021/07/06 08:39:16;;;;;;;6.22;2.85;;;33.00;38.30;;;;;;5073558;28;20040;-57
2021/07/06 08:41:43;;;;;;;14.13;11.25;;;33.00;38.40;;;;;;5073934;28;20044;-55
2021/07/06 08:44:09;;;;;;;14.75;11.40;;;33.00;38.40;;;;;;5052781;28;20019;-56
2021/07/06 08:46:37;;;;;;;25.98;23.42;;;33.00;38.20;;;;;;5053707;28;20028;-56
2021/07/06 08:49:04;;;;;;;22.17;19.88;;;33.10;38.50;;;;;;5053037;28;20086;-57
2021/07/06 08:51:31;;;;;;;24.13;21.63;;;33.10;38.40;;;;;;5053606;28;20103;-55
2021/07/06 08:53:57;;;;;;;22.63;20.33;;;33.10;38.40;;;;;;5053766;28;20044;-55
2021/07/06 08:56:23;;;;;;;20.38;18.05;;;33.10;38.50;;;;;;5054122;28;20060;-56
2021/07/06 08:58:50;;;;;;;14.82;13.30;;;33.20;38.70;;;;;;5053685;28;20033;-58
2021/07/06 09:01:17;;;;;;;14.07;12.60;;;33.20;38.60;;;;;;5053448;28;20104;-58
2021/07/06 09:03:55;;;;;;;14.35;12.85;;;33.20;38.60;;;;;;5053730;28;20455;-59
2021/07/06 09:06:26;;;;;;;14.13;12.63;;;33.20;38.40;;;;;;5052755;28;20029;-59
2021/07/06 09:09:18;;;;;;;16.98;12.40;;;33.20;38.10;;;;;;5035065;28;20033;-58
2021/07/06 09:11:47;;;;;;;16.05;12.75;;;33.20;38.10;;;;;;5058084;28;20059;-58
2021/07/06 09:14:14;;;;;;;17.27;11.85;;;33.30;37.90;;;;;;5073818;28;20425;-56
2021/07/06 09:16:41;;;;;;;17.95;12.82;;;33.30;37.90;;;;;;5057434;28;20022;-57
2021/07/06 09:19:25;;;;;;;13.25;11.35;;;33.30;37.60;;;;;;5053578;28;20071;-57
2021/07/06 09:22:10;;;;;;;14.25;11.73;;;33.20;37.20;;;;;;5053282;28;20384;-57
2021/07/06 09:24:37;;;;;;;11.80;10.70;;;33.20;37.10;;;;;;5051033;28;20032;-57
2021/07/06 09:27:20;;;;;;;12.80;11.02;;;33.30;36.70;;;;;;5053674;28;20404;-59
2021/07/06 09:30:07;;;;;;;20.67;11.85;;;33.20;36.70;;;;;;5053128;28;20021;-58
2021/07/06 09:32:35;;;;;;;12.55;11.15;;;33.30;37.00;;;;;;5018264;28;20120;-57
2021/07/06 09:35:12;;;;;;;11.93;10.68;;;33.20;37.00;;;;;;5053318;28;20036;-57
2021/07/06 09:37:46;;;;;;;14.93;11.85;;;33.20;37.10;;;;;;5053250;28;20029;-56
2021/07/06 09:40:38;;;;;;;12.88;10.95;;;33.30;37.30;;;;;;5052638;28;20090;-58
2021/07/06 09:43:18;;;;;;;12.57;11.38;;;33.30;37.30;;;;;;5035222;28;20376;-59
2021/07/06 09:46:03;;;;;;;14.07;12.52;;;33.30;37.30;;;;;;5052907;28;20029;-58
2021/07/06 09:48:30;;;;;;;13.95;12.18;;;33.30;37.30;;;;;;5053089;28;20041;-58
2021/07/06 09:51:19;;;;;;;13.70;12.40;;;33.40;37.40;;;;;;5052239;28;20459;-58
2021/07/06 09:53:53;;;;;;;16.67;14.98;;;33.40;37.30;;;;;;5052276;28;20045;-58
2021/07/06 09:56:26;;;;;;;18.23;16.20;;;33.40;37.20;;;;;;5052645;28;20025;-58
2021/07/06 09:58:55;;;;;;;20.48;18.58;;;33.40;37.20;;;;;;5052878;28;20490;-58
2021/07/06 10:01:22;;;;;;;21.33;19.42;;;33.50;37.30;;;;;;5052682;28;20029;-58
2021/07/06 10:03:50;;;;;;;20.85;18.50;;;33.50;37.20;;;;;;5052609;28;20056;-57
2021/07/06 10:06:19;;;;;;;19.52;17.50;;;33.60;37.20;;;;;;5052709;28;20035;-58
2021/07/06 10:08:45;;;;;;;22.23;20.25;;;33.60;37.10;;;;;;5052743;28;20036;-57
2021/07/06 10:11:11;;;;;;;23.83;21.52;;;33.60;37.10;;;;;;5052649;28;20021;-58
2021/07/06 10:13:38;;;;;;;23.83;21.73;;;33.60;37.00;;;;;;5048858;28;20040;-58
2021/07/06 10:16:04;;;;;;;23.15;21.02;;;33.60;36.90;;;;;;5049057;28;20155;-57
2021/07/06 10:18:35;;;;;;;22.48;20.48;;;33.70;36.90;;;;;;5018565;28;20031;-58
2021/07/06 10:21:04;;;;;;;21.77;19.70;;;33.70;36.90;;;;;;5032125;28;20025;-58
2021/07/06 10:23:32;;;;;;;22.55;20.48;;;33.70;36.90;;;;;;5032016;28;20068;-56
2021/07/06 10:25:59;;;;;;;23.15;20.98;;;33.80;37.00;;;;;;5031998;28;20098;-56
2021/07/06 10:28:30;;;;;;;22.38;20.23;;;33.80;36.90;;;;;;5032302;28;20025;-57
2021/07/06 10:30:56;;;;;;;24.13;21.98;;;33.80;36.80;;;;;;5024238;28;20380;-59
2021/07/06 10:33:32;;;;;;;24.92;22.52;;;33.90;36.90;;;;;;5051534;28;20192;-58
2021/07/06 10:35:59;;;;;;;23.60;21.42;;;33.90;36.80;;;;;;5051114;28;20079;-58
2021/07/06 10:38:28;;;;;;;22.42;20.15;;;33.90;36.90;;;;;;5034174;28;20029;-56
2021/07/06 10:40:54;;;;;;;22.90;20.83;;;33.90;36.70;;;;;;5050603;28;20057;-56
2021/07/06 10:43:31;;;;;;;24.77;22.65;;;33.90;36.80;;;;;;5037438;28;20285;-56
2021/07/06 10:46:14;;;;;;;22.45;20.55;;;34.00;36.70;;;;;;5069853;28;20052;-56
2021/07/06 10:48:45;;;;;;;24.30;22.17;;;34.00;36.80;;;;;;5035168;28;20032;-57
2021/07/06 10:54:20;;;;;;;27.08;24.70;;;34.10;36.80;;;;;;5049604;28;20037;-57
2021/07/06 10:56:51;;;;;;;28.63;26.00;;;34.10;36.80;;;;;;5066101;28;20513;-57
2021/07/06 10:59:37;;;;;;;28.05;25.42;;;34.20;36.80;;;;;;5070819;28;20146;-56
2021/07/06 11:02:22;;;;;;;30.00;27.00;;;34.20;36.90;;;;;;5053310;28;20482;-56
2021/07/06 11:04:51;;;;;;;34.17;30.98;;;34.20;36.80;;;;;;5070787;28;20028;-56
2021/07/06 11:07:42;;;;;;;34.33;31.17;;;34.20;36.70;;;;;;5071271;28;20111;-56
2021/07/06 11:10:09;;;;;;;36.03;32.67;;;34.30;36.90;;;;;;5046218;28;20054;-58
2021/07/06 11:12:36;;;;;;;34.67;31.08;;;34.30;36.70;;;;;;5051293;28;20408;-56
2021/07/06 11:15:16;;;;;;;31.52;28.75;;;34.30;36.60;;;;;;5032903;28;20052;-56
2021/07/06 11:17:47;;;;;;;33.85;30.50;;;34.30;36.70;;;;;;5051066;28;20025;-58
2021/07/06 11:20:31;;;;;;;32.13;29.02;;;34.40;36.60;;;;;;5050065;28;20114;-57
2021/07/06 11:22:58;;;;;;;36.55;32.95;;;34.40;36.60;;;;;;5054200;28;20115;-57
2021/07/06 11:25:30;;;;;;;33.35;29.92;;;34.50;36.70;;;;;;5050575;28;20365;-57
2021/07/06 11:27:59;;;;;;;35.38;31.92;;;34.50;36.70;;;;;;5050998;28;20467;-57
2021/07/06 11:30:37;;;;;;;35.30;31.37;;;34.50;36.60;;;;;;5045450;28;20029;-57
2021/07/06 11:33:24;;;;;;;37.28;32.45;;;34.50;36.40;;;;;;5049170;28;20387;-57
2021/07/06 11:35:53;;;;;;;35.80;32.05;;;34.50;36.50;;;;;;5046943;28;20108;-57
2021/07/06 11:38:37;;;;;;;36.42;32.97;;;34.60;36.50;;;;;;5045851;28;20056;-57
2021/07/06 11:41:04;;;;;;;34.72;31.30;;;34.60;36.60;;;;;;5043381;28;20037;-57
2021/07/06 11:43:32;;;;;;;31.80;28.60;;;34.60;36.50;;;;;;5047843;28;20495;-56
2021/07/06 11:46:03;;;;;;;35.40;31.55;;;34.70;36.50;;;;;;5050333;28;20024;-57
2021/07/06 11:48:34;;;;;;;31.65;28.73;;;34.70;36.60;;;;;;5032453;28;20116;-57
2021/07/06 11:51:01;;;;;;;32.10;28.88;;;34.70;36.50;;;;;;5050338;28;20080;-57
2021/07/06 11:53:31;;;;;;;30.40;27.40;;;34.70;36.60;;;;;;5047277;28;20116;-58
2021/07/06 11:55:58;;;;;;;37.13;33.10;;;34.80;36.60;;;;;;5049275;28;20032;-57
2021/07/06 11:58:27;;;;;;;33.13;29.85;;;34.80;36.60;;;;;;5050087;28;20033;-57
2021/07/06 12:00:55;;;;;;;31.58;28.30;;;34.90;36.60;;;;;;5047418;28;20082;-57
2021/07/06 12:03:27;;;;;;;30.80;27.67;;;34.90;36.60;;;;;;5031993;28;20396;-56
2021/07/06 12:06:13;;;;;;;31.88;28.50;;;34.90;36.40;;;;;;5047858;28;20432;-56
2021/07/06 12:08:43;;;;;;;33.08;29.90;;;34.90;36.50;;;;;;5048676;28;20017;-57
2021/07/06 12:11:14;;;;;;;31.80;28.15;;;35.00;36.50;;;;;;5050374;28;20021;-56
2021/07/06 12:13:40;;;;;;;31.90;28.65;;;35.00;36.40;;;;;;5050170;28;20102;-56
2021/07/06 12:16:14;;;;;;;31.13;27.45;;;35.00;36.40;;;;;;5049915;28;20033;-56
2021/07/06 12:18:54;;;;;;;31.08;27.80;;;35.00;36.40;;;;;;5048792;28;20115;-57
2021/07/06 12:21:27;;;;;;;28.48;25.30;;;35.10;36.40;;;;;;5030030;28;20029;-56
2021/07/06 12:23:54;;;;;;;29.30;26.23;;;35.10;36.30;;;;;;5048797;28;20029;-57
2021/07/06 12:26:21;;;;;;;28.80;25.70;;;35.20;36.40;;;;;;5049582;28;20054;-57
2021/07/06 12:28:48;;;;;;;26.67;24.10;;;35.20;36.30;;;;;;5032485;28;20571;-57
2021/07/06 12:31:43;;;;;;;28.42;25.50;;;35.20;36.30;;;;;;5050356;28;20205;-59
2021/07/06 12:34:11;;;;;;;27.83;25.13;;;35.20;36.40;;;;;;4969649;28;20141;-58
2021/07/06 12:36:46;;;;;;;29.00;26.02;;;35.20;36.20;;;;;;4969845;28;20046;-58
2021/07/06 12:39:21;;;;;;;26.90;24.38;;;35.30;36.10;;;;;;4969559;28;20058;-57
2021/07/06 12:41:53;;;;;;;27.73;24.83;;;35.30;36.10;;;;;;4969034;28;20402;-58
2021/07/06 12:44:32;;;;;;;26.48;24.00;;;35.30;36.10;;;;;;4968970;28;20043;-57
2021/07/06 12:47:20;;;;;;;27.08;23.75;;;35.40;36.10;;;;;;4968925;28;20031;-58
2021/07/06 12:49:53;;;;;;;26.85;24.30;;;35.40;36.20;;;;;;4959808;28;20035;-58
2021/07/06 12:52:21;;;;;;;25.90;23.38;;;35.40;36.00;;;;;;4969840;28;20402;-58